createdAt,value
2022-10-31T00:00:02.298Z,24.50
2022-10-31T00:02:28.935Z,24.40
2022-10-31T00:04:55.507Z,25.85
2022-10-31T00:07:22.040Z,27.15
2022-10-31T00:09:48.579Z,27.75
2022-10-31T00:12:15.125Z,28.50
2022-10-31T00:14:41.676Z,28.77
2022-10-31T00:17:08.254Z,27.98
2022-10-31T00:19:34.778Z,30.50
2022-10-31T00:22:01.335Z,29.08
2022-10-31T00:24:28.003Z,29.77
2022-10-31T00:26:54.555Z,29.02
2022-10-31T00:29:21.105Z,27.70
2022-10-31T00:31:47.672Z,28.83
2022-10-31T00:34:14.329Z,30.98
2022-10-31T00:36:40.897Z,29.92
2022-10-31T00:39:07.440Z,31.15
2022-10-31T00:41:34.002Z,30.00
2022-10-31T00:44:00.522Z,28.23
2022-10-31T00:46:27.122Z,32.92
2022-10-31T00:48:53.683Z,31.92
2022-10-31T00:51:20.217Z,30.30
2022-10-31T00:53:46.806Z,29.83
2022-10-31T00:56:13.352Z,30.37
2022-10-31T00:58:39.909Z,31.30
2022-10-31T01:01:06.641Z,29.30
2022-10-31T01:03:33.672Z,31.90
2022-10-31T01:06:05.276Z,30.48
2022-10-31T01:08:31.840Z,29.25
2022-10-31T01:11:03.872Z,29.92
2022-10-31T01:13:30.453Z,30.98
2022-10-31T01:15:59.728Z,30.83
2022-10-31T01:18:26.469Z,31.00
2022-10-31T01:21:00.616Z,29.15
2022-10-31T01:23:27.562Z,30.15
2022-10-31T01:26:23.800Z,29.08
2022-10-31T01:28:52.042Z,29.25
2022-10-31T01:31:19.416Z,28.25
2022-10-31T01:33:46.042Z,26.90
2022-10-31T01:36:23.342Z,26.95
2022-10-31T01:38:50.055Z,26.17
2022-10-31T01:41:18.946Z,27.50
2022-10-31T01:43:56.448Z,28.48
2022-10-31T01:46:28.784Z,25.67
2022-10-31T01:48:55.593Z,27.13
2022-10-31T01:51:24.281Z,24.67
2022-10-31T01:53:50.826Z,24.02
2022-10-31T01:56:17.364Z,24.67
2022-10-31T01:58:43.892Z,24.67
2022-10-31T02:01:10.566Z,23.73
2022-10-31T02:03:37.204Z,24.70
2022-10-31T02:06:03.885Z,23.52
2022-10-31T02:08:31.379Z,21.10
2022-10-31T02:10:58.318Z,22.17
2022-10-31T02:15:56.961Z,22.10
2022-10-31T02:18:23.700Z,19.70
2022-10-31T02:21:02.306Z,20.62
2022-10-31T02:23:41.663Z,19.75
2022-10-31T02:26:39.114Z,19.50
2022-10-31T02:29:50.788Z,20.50
2022-10-31T02:32:39.961Z,17.48
2022-10-31T02:35:11.319Z,17.27
2022-10-31T02:37:56.284Z,18.08
2022-10-31T02:40:44.681Z,17.60
2022-10-31T02:43:15.761Z,16.35
2022-10-31T02:45:46.975Z,16.67
2022-10-31T02:48:16.052Z,16.85
2022-10-31T02:50:43.611Z,15.68
2022-10-31T02:53:10.138Z,14.38
2022-10-31T02:55:36.522Z,14.38
2022-10-31T02:58:11.472Z,15.02
2022-10-31T03:00:47.021Z,15.73
2022-10-31T03:03:24.190Z,15.30
2022-10-31T03:05:57.795Z,14.13
2022-10-31T03:08:37.016Z,15.55
2022-10-31T03:11:04.974Z,15.45
2022-10-31T03:13:50.984Z,14.75
2022-10-31T03:16:28.413Z,14.20
2022-10-31T03:18:56.433Z,14.05
2022-10-31T03:21:46.137Z,14.20
2022-10-31T03:24:13.122Z,14.15
2022-10-31T03:26:42.146Z,14.55
2022-10-31T03:29:09.426Z,14.60
2022-10-31T03:31:51.227Z,14.68
2022-10-31T03:34:17.947Z,14.18
2022-10-31T03:36:44.501Z,14.35
2022-10-31T03:39:13.659Z,14.25
2022-10-31T03:41:42.584Z,13.40
2022-10-31T03:44:11.836Z,15.23
2022-10-31T03:46:38.433Z,14.77
2022-10-31T03:49:05.060Z,15.77
2022-10-31T03:51:38.162Z,14.73
2022-10-31T03:54:10.395Z,15.70
2022-10-31T03:57:21.555Z,16.20
2022-10-31T04:00:12.215Z,17.10
2022-10-31T04:02:44.098Z,15.82
2022-10-31T04:05:11.003Z,16.58
2022-10-31T04:07:43.312Z,17.00
2022-10-31T04:10:12.324Z,16.95
2022-10-31T04:12:39.119Z,17.40
2022-10-31T04:15:06.690Z,17.90
2022-10-31T04:17:36.236Z,17.60
2022-10-31T04:20:02.914Z,17.08
2022-10-31T04:22:29.494Z,17.52
2022-10-31T04:24:56.044Z,17.65
2022-10-31T04:27:22.589Z,17.83
2022-10-31T04:29:50.878Z,18.33
2022-10-31T04:32:17.721Z,18.52
2022-10-31T04:34:44.324Z,19.95
2022-10-31T04:37:10.915Z,17.92
2022-10-31T04:39:37.483Z,17.55
2022-10-31T04:42:04.101Z,18.23
2022-10-31T04:44:30.646Z,17.92
2022-10-31T04:46:57.263Z,19.45
2022-10-31T04:49:23.852Z,18.80
2022-10-31T04:51:50.419Z,19.23
2022-10-31T04:54:16.980Z,18.12
2022-10-31T04:56:43.522Z,17.00
2022-10-31T04:59:10.066Z,18.30
2022-10-31T05:01:36.710Z,17.45
2022-10-31T05:04:03.457Z,16.98
2022-10-31T05:06:30.049Z,17.77
2022-10-31T05:08:56.578Z,17.75
2022-10-31T05:11:23.147Z,17.80
2022-10-31T05:13:49.710Z,19.85
2022-10-31T05:16:16.277Z,17.87
2022-10-31T05:18:42.924Z,17.45
2022-10-31T05:21:09.556Z,17.98
2022-10-31T05:23:36.197Z,16.27
2022-10-31T05:26:02.834Z,17.62
2022-10-31T05:28:29.439Z,17.67
2022-10-31T05:30:56.016Z,17.08
2022-10-31T05:33:22.721Z,17.37
2022-10-31T05:35:49.327Z,16.27
2022-10-31T05:38:16.011Z,16.23
2022-10-31T05:40:42.637Z,16.40
2022-10-31T05:43:09.286Z,16.25
2022-10-31T05:45:35.970Z,16.37
2022-10-31T05:48:04.233Z,15.50
2022-10-31T05:50:31.870Z,15.75
2022-10-31T05:53:04.015Z,16.48
2022-10-31T05:55:30.729Z,15.95
2022-10-31T05:57:57.703Z,18.02
2022-10-31T06:00:25.061Z,15.85
2022-10-31T06:02:59.138Z,16.27
2022-10-31T06:05:25.866Z,16.35
2022-10-31T06:07:54.650Z,16.30
2022-10-31T06:10:22.041Z,15.80
2022-10-31T06:13:09.181Z,16.48
2022-10-31T06:15:35.834Z,16.27
2022-10-31T06:18:04.188Z,16.83
2022-10-31T06:20:31.077Z,16.95
2022-10-31T06:22:57.832Z,15.18
2022-10-31T06:25:25.641Z,14.77
2022-10-31T06:27:52.240Z,15.68
2022-10-31T06:30:18.801Z,15.38
2022-10-31T06:32:45.762Z,15.20
2022-10-31T06:35:12.651Z,15.35
2022-10-31T06:37:39.731Z,15.05
2022-10-31T06:40:09.746Z,13.70
2022-10-31T06:42:36.420Z,14.48
2022-10-31T06:45:03.179Z,14.07
2022-10-31T06:47:30.047Z,14.10
2022-10-31T06:49:56.764Z,14.68
2022-10-31T06:52:24.446Z,13.48
2022-10-31T06:57:17.778Z,13.57
2022-10-31T06:59:44.547Z,13.45
2022-10-31T07:02:11.553Z,14.00
2022-10-31T07:04:38.258Z,12.90
2022-10-31T07:07:05.078Z,13.65
2022-10-31T07:09:31.967Z,14.13
2022-10-31T07:11:58.627Z,15.63
2022-10-31T07:14:25.220Z,14.68
2022-10-31T07:16:52.044Z,14.18
2022-10-31T07:19:18.766Z,14.43
2022-10-31T07:21:45.352Z,13.48
2022-10-31T07:24:11.986Z,13.90
2022-10-31T07:26:38.688Z,14.23
2022-10-31T07:29:05.318Z,14.52
2022-10-31T07:31:31.929Z,13.93
2022-10-31T07:33:58.648Z,14.80
2022-10-31T07:36:25.448Z,14.25
2022-10-31T07:38:52.089Z,13.23
2022-10-31T07:41:18.788Z,12.23
2022-10-31T07:43:45.483Z,13.55
2022-10-31T07:46:12.412Z,13.15
2022-10-31T07:48:39.351Z,13.75
2022-10-31T07:51:07.934Z,13.52
2022-10-31T07:53:34.539Z,14.60
2022-10-31T07:56:01.266Z,14.43
2022-10-31T07:58:27.901Z,15.55
2022-10-31T08:00:54.605Z,14.10
2022-10-31T08:03:21.309Z,15.70
2022-10-31T08:05:48.259Z,14.82
2022-10-31T08:08:15.050Z,13.82
2022-10-31T08:10:41.764Z,15.53
2022-10-31T08:13:10.600Z,14.75
2022-10-31T08:15:40.125Z,15.55
2022-10-31T08:18:07.393Z,16.75
2022-10-31T08:20:33.945Z,15.82
2022-10-31T08:23:04.506Z,16.33
2022-10-31T08:25:35.544Z,15.57
2022-10-31T08:28:05.357Z,15.68
2022-10-31T08:30:33.120Z,16.27
2022-10-31T08:33:04.318Z,16.60
2022-10-31T08:35:30.916Z,17.17
2022-10-31T08:37:58.132Z,17.95
2022-10-31T08:40:25.533Z,18.62
2022-10-31T08:43:02.573Z,19.70
2022-10-31T08:45:29.802Z,18.65
2022-10-31T08:48:05.200Z,18.98
2022-10-31T08:50:32.949Z,18.25
2022-10-31T08:53:07.188Z,18.33
2022-10-31T08:55:36.100Z,19.20
2022-10-31T08:58:03.337Z,20.05
2022-10-31T09:00:30.374Z,19.00
2022-10-31T09:03:01.141Z,20.03
2022-10-31T09:05:27.918Z,18.08
2022-10-31T09:08:02.035Z,18.00
2022-10-31T09:10:29.416Z,17.62
2022-10-31T09:13:08.704Z,17.83
2022-10-31T09:15:36.380Z,19.08
2022-10-31T09:20:30.148Z,16.00
2022-10-31T09:23:00.809Z,17.58
2022-10-31T09:25:27.589Z,19.20
2022-10-31T09:28:00.836Z,17.87
2022-10-31T09:30:31.647Z,19.42
2022-10-31T09:32:58.945Z,17.23
2022-10-31T09:35:26.048Z,18.42
2022-10-31T09:37:57.140Z,18.50
2022-10-31T09:40:38.701Z,19.40
2022-10-31T09:43:48.837Z,17.37
2022-10-31T09:46:17.889Z,18.10
2022-10-31T09:48:59.308Z,18.17
2022-10-31T09:51:38.156Z,19.73
2022-10-31T09:54:30.072Z,17.02
2022-10-31T09:56:57.957Z,17.95
2022-10-31T09:59:38.670Z,18.37
2022-10-31T10:02:09.397Z,17.92
2022-10-31T10:04:46.358Z,17.95
2022-10-31T10:07:20.535Z,17.80
2022-10-31T10:09:47.547Z,17.10
2022-10-31T10:24:48.091Z,17.67
2022-10-31T10:27:32.954Z,18.20
2022-10-31T10:30:09.206Z,17.10
2022-10-31T10:32:50.874Z,16.23
2022-10-31T10:35:30.471Z,18.10
2022-10-31T10:40:26.133Z,16.80
2022-10-31T10:46:32.685Z,17.10
2022-10-31T10:49:23.849Z,16.12
2022-10-31T10:55:26.213Z,16.20
2022-10-31T10:58:04.600Z,14.43
2022-10-31T11:00:33.435Z,15.15
2022-10-31T11:03:00.216Z,15.60
2022-10-31T11:05:43.410Z,16.02
2022-10-31T11:08:09.965Z,15.02
2022-10-31T11:10:36.584Z,17.45
2022-10-31T11:13:03.526Z,14.75
2022-10-31T11:15:33.002Z,14.70
2022-10-31T11:17:59.566Z,14.18
2022-10-31T11:20:29.453Z,13.40
2022-10-31T11:23:02.942Z,13.68
2022-10-31T11:25:29.634Z,14.07
2022-10-31T11:28:05.259Z,13.38
2022-10-31T11:30:32.383Z,13.10
2022-10-31T11:32:59.280Z,14.70
2022-10-31T11:35:26.250Z,15.52
2022-10-31T11:37:59.751Z,15.00
2022-10-31T11:40:27.130Z,12.32
2022-10-31T11:42:56.325Z,12.93
2022-10-31T11:45:49.323Z,14.80
2022-10-31T11:48:20.868Z,14.60
2022-10-31T11:50:57.868Z,13.95
2022-10-31T11:53:31.736Z,13.40
2022-10-31T11:56:06.129Z,13.95
2022-10-31T11:58:32.689Z,13.93
2022-10-31T12:00:59.332Z,13.75
2022-10-31T12:03:41.686Z,14.95
2022-10-31T12:06:32.781Z,29.58
2022-10-31T12:08:59.399Z,13.77
2022-10-31T12:11:42.153Z,13.60
2022-10-31T12:14:30.485Z,13.50
2022-10-31T12:17:42.334Z,12.85
2022-10-31T12:20:22.938Z,12.20
2022-10-31T12:23:11.347Z,13.30
2022-10-31T12:26:16.551Z,12.85
2022-10-31T12:29:01.966Z,12.95
2022-10-31T12:32:09.875Z,12.95
2022-10-31T12:35:01.772Z,13.25
2022-10-31T12:37:33.941Z,13.57
2022-10-31T12:40:12.349Z,14.90
2022-10-31T12:42:45.555Z,13.55
2022-10-31T12:45:19.900Z,13.18
2022-10-31T12:47:58.309Z,13.55
2022-10-31T12:53:25.054Z,13.02
2022-10-31T12:55:56.965Z,13.25
2022-10-31T12:58:35.137Z,13.62
2022-10-31T13:01:09.550Z,14.73
2022-10-31T13:03:51.343Z,14.40
2022-10-31T13:06:20.900Z,14.25
2022-10-31T13:08:51.211Z,12.00
2022-10-31T13:11:33.579Z,12.45
2022-10-31T13:14:15.165Z,12.73
2022-10-31T13:16:43.915Z,12.02
2022-10-31T13:19:31.525Z,13.45
2022-10-31T13:22:08.627Z,17.62
2022-10-31T13:24:37.968Z,13.45
2022-10-31T13:27:27.639Z,13.10
2022-10-31T13:30:20.222Z,12.95
2022-10-31T13:32:56.182Z,12.60
2022-10-31T13:35:52.703Z,12.77
2022-10-31T13:38:37.222Z,13.50
2022-10-31T13:41:18.014Z,12.80
2022-10-31T13:44:01.497Z,12.82
2022-10-31T13:46:34.117Z,11.90
2022-10-31T13:49:00.815Z,13.07
2022-10-31T13:51:29.457Z,12.85
2022-10-31T13:53:55.887Z,11.70
2022-10-31T13:56:24.036Z,13.52
2022-10-31T13:59:02.033Z,13.25
2022-10-31T14:01:30.016Z,13.30
2022-10-31T14:04:13.964Z,12.98
2022-10-31T14:06:58.346Z,13.25
2022-10-31T14:09:29.113Z,13.00
2022-10-31T14:11:55.857Z,14.95
2022-10-31T14:14:23.393Z,12.85
2022-10-31T14:16:55.797Z,13.07
2022-10-31T14:19:22.543Z,12.80
2022-10-31T14:21:49.741Z,12.65
2022-10-31T14:24:25.453Z,12.95
2022-10-31T14:26:53.716Z,12.63
2022-10-31T14:29:22.066Z,12.60
2022-10-31T14:32:13.780Z,13.45
2022-10-31T14:34:58.556Z,12.93
2022-10-31T14:37:52.358Z,14.30
2022-10-31T14:40:41.220Z,14.10
2022-10-31T14:43:27.448Z,15.73
2022-10-31T14:46:16.082Z,14.50
2022-10-31T14:49:00.361Z,15.45
2022-10-31T14:51:48.447Z,14.25
2022-10-31T14:54:28.458Z,14.80
2022-10-31T14:56:56.602Z,15.88
2022-10-31T14:59:28.579Z,15.50
2022-10-31T15:02:00.169Z,14.15
2022-10-31T15:04:28.624Z,13.38
2022-10-31T15:07:24.621Z,14.07
2022-10-31T15:10:07.006Z,13.10
2022-10-31T15:12:39.610Z,14.00
2022-10-31T15:15:18.082Z,15.38
2022-10-31T15:17:57.567Z,15.63
2022-10-31T15:20:27.301Z,15.43
2022-10-31T15:22:55.907Z,15.52
2022-10-31T15:25:25.082Z,15.27
2022-10-31T15:27:53.104Z,15.93
2022-10-31T15:30:23.501Z,15.07
2022-10-31T15:32:57.485Z,14.52
2022-10-31T15:35:31.536Z,14.63
2022-10-31T15:37:59.223Z,13.55
2022-10-31T15:40:27.089Z,14.73
2022-10-31T15:43:03.281Z,13.65
2022-10-31T15:45:31.295Z,14.63
2022-10-31T15:47:58.718Z,14.77
2022-10-31T15:52:57.862Z,14.15
2022-10-31T15:55:29.108Z,14.73
2022-10-31T15:57:59.873Z,15.02
2022-10-31T16:00:26.524Z,15.00
2022-10-31T16:03:16.245Z,14.80
2022-10-31T16:06:04.963Z,15.90
2022-10-31T16:08:31.415Z,15.13
2022-10-31T16:11:04.114Z,15.68
2022-10-31T16:13:35.967Z,16.45
2022-10-31T16:16:33.052Z,16.70
2022-10-31T16:18:51.983Z,16.40
2022-10-31T16:21:25.229Z,15.55
2022-10-31T16:23:58.048Z,14.82
2022-10-31T16:26:24.920Z,15.60
2022-10-31T16:29:03.318Z,16.52
2022-10-31T16:31:40.134Z,16.52
2022-10-31T16:34:21.214Z,15.80
2022-10-31T16:36:50.558Z,16.20
2022-10-31T16:39:18.332Z,16.55
2022-10-31T16:44:22.402Z,16.45
2022-10-31T16:46:48.959Z,16.70
2022-10-31T16:49:16.540Z,15.75
2022-10-31T16:51:43.828Z,15.48
2022-10-31T16:54:11.794Z,17.05
2022-10-31T16:56:38.703Z,15.65
2022-10-31T16:59:06.624Z,15.53
2022-10-31T17:01:33.364Z,15.35
2022-10-31T17:04:00.361Z,16.13
2022-10-31T17:06:28.520Z,15.10
2022-10-31T17:08:55.464Z,14.98
2022-10-31T17:11:23.321Z,15.93
2022-10-31T17:16:16.382Z,14.57
2022-10-31T17:18:43.874Z,15.48
2022-10-31T17:21:13.404Z,14.80
2022-10-31T17:23:39.986Z,15.27
2022-10-31T17:26:08.739Z,14.00
2022-10-31T17:28:35.354Z,14.68
2022-10-31T17:31:01.945Z,15.35
2022-10-31T17:33:28.549Z,15.35
2022-10-31T17:35:55.174Z,13.77
2022-10-31T17:38:21.791Z,14.63
2022-10-31T17:43:14.929Z,13.07
2022-10-31T17:45:41.843Z,14.20
2022-10-31T17:48:11.168Z,13.50
2022-10-31T17:50:37.778Z,13.70
2022-10-31T17:53:04.686Z,13.95
2022-10-31T17:55:36.096Z,14.20
2022-10-31T17:58:04.241Z,13.65
2022-10-31T18:00:30.828Z,13.10
2022-10-31T18:02:57.502Z,14.02
2022-10-31T18:05:24.254Z,14.95
2022-10-31T18:07:51.186Z,15.65
2022-10-31T18:10:17.881Z,14.67
2022-10-31T18:12:44.480Z,14.20
2022-10-31T18:15:11.091Z,13.73
2022-10-31T18:17:41.046Z,14.40
2022-10-31T18:20:09.842Z,13.60
2022-10-31T18:22:36.440Z,15.32
2022-10-31T18:25:03.321Z,13.70
2022-10-31T18:27:29.909Z,14.60
2022-10-31T18:29:56.474Z,15.02
2022-10-31T18:32:23.229Z,14.85
2022-10-31T18:34:49.840Z,15.60
2022-10-31T18:37:16.436Z,16.55
2022-10-31T18:39:42.998Z,15.93
2022-10-31T18:42:09.569Z,15.88
2022-10-31T18:44:36.193Z,16.50
2022-10-31T18:47:02.796Z,15.88
2022-10-31T18:49:32.767Z,16.58
2022-10-31T18:51:59.960Z,16.00
2022-10-31T18:54:26.547Z,16.92
2022-10-31T18:56:53.180Z,15.48
2022-10-31T18:59:19.718Z,18.08
2022-10-31T19:01:46.813Z,15.93
2022-10-31T19:04:13.752Z,17.00
2022-10-31T19:06:40.351Z,16.40
2022-10-31T19:09:09.454Z,16.90
2022-10-31T19:11:36.590Z,17.17
2022-10-31T19:14:03.279Z,17.35
2022-10-31T19:16:29.864Z,17.20
2022-10-31T19:18:57.442Z,16.67
2022-10-31T19:21:24.120Z,16.48
2022-10-31T19:23:52.247Z,16.50
2022-10-31T19:26:18.848Z,18.10
2022-10-31T19:28:45.418Z,18.08
2022-10-31T19:31:12.009Z,16.75
2022-10-31T19:33:38.713Z,17.80
2022-10-31T19:36:08.123Z,17.60
2022-10-31T19:38:35.513Z,15.75
2022-10-31T19:41:03.758Z,15.07
2022-10-31T19:43:30.427Z,15.73
2022-10-31T19:46:01.225Z,15.93
2022-10-31T19:48:27.872Z,15.95
2022-10-31T19:50:58.669Z,15.82
2022-10-31T19:53:25.350Z,17.37
2022-10-31T19:55:51.930Z,16.20
2022-10-31T19:58:18.682Z,17.73
2022-10-31T20:00:45.352Z,16.80
2022-10-31T20:03:12.108Z,16.75
2022-10-31T20:05:41.885Z,16.27
2022-10-31T20:08:12.806Z,17.65
2022-10-31T20:10:39.335Z,17.70
2022-10-31T20:13:05.944Z,17.40
2022-10-31T20:15:33.688Z,17.67
2022-10-31T20:20:26.711Z,17.23
2022-10-31T20:22:53.344Z,17.12
2022-10-31T20:25:19.976Z,16.15
2022-10-31T20:27:46.636Z,18.75
2022-10-31T20:30:13.476Z,18.90
2022-10-31T20:32:40.085Z,17.77
2022-10-31T20:35:06.940Z,17.52
2022-10-31T20:37:33.516Z,17.80
2022-10-31T20:40:04.226Z,17.70
2022-10-31T20:42:30.858Z,18.00
2022-10-31T20:44:57.383Z,18.05
2022-10-31T20:47:25.872Z,20.73
2022-10-31T20:49:52.569Z,17.83
2022-10-31T20:52:19.227Z,18.12
2022-10-31T20:54:45.779Z,17.65
2022-10-31T20:57:12.337Z,17.73
2022-10-31T20:59:38.910Z,17.60
2022-10-31T21:02:05.623Z,18.90
2022-10-31T21:04:32.249Z,18.12
2022-10-31T21:06:58.873Z,18.25
2022-10-31T21:09:25.484Z,19.33
2022-10-31T21:11:52.048Z,18.15
2022-10-31T21:14:19.066Z,18.92
2022-10-31T21:16:45.767Z,18.35
2022-10-31T21:19:12.969Z,18.08
2022-10-31T21:21:39.707Z,18.90
2022-10-31T21:24:08.318Z,18.00
2022-10-31T21:26:37.121Z,18.92
2022-10-31T21:29:04.435Z,18.85
2022-10-31T21:31:31.429Z,17.85
2022-10-31T21:33:58.098Z,18.52
2022-10-31T21:36:26.210Z,17.27
2022-10-31T21:38:53.256Z,17.30
2022-10-31T21:41:20.258Z,18.58
2022-10-31T21:43:48.432Z,17.52
2022-10-31T21:46:19.273Z,16.33
2022-10-31T21:48:46.180Z,16.67
2022-10-31T21:51:17.393Z,17.93
2022-10-31T21:54:02.505Z,17.52
2022-10-31T21:56:29.235Z,17.70
2022-10-31T21:58:55.786Z,17.52
2022-10-31T22:01:23.203Z,16.67
2022-10-31T22:03:49.822Z,17.40
2022-10-31T22:06:16.579Z,18.98
2022-10-31T22:08:43.238Z,17.25
2022-10-31T22:11:13.632Z,17.08
2022-10-31T22:13:40.647Z,17.12
2022-10-31T22:16:12.340Z,18.05
2022-10-31T22:18:39.227Z,17.60
2022-10-31T22:21:16.567Z,17.67
2022-10-31T22:23:43.326Z,19.08
2022-10-31T22:26:14.535Z,19.62
2022-10-31T22:28:41.989Z,18.17
2022-10-31T22:31:09.585Z,16.98
2022-10-31T22:33:36.676Z,18.80
2022-10-31T22:36:07.915Z,18.92
2022-10-31T22:38:35.224Z,17.02
2022-10-31T22:41:02.029Z,18.37
2022-10-31T22:43:28.643Z,17.83
2022-10-31T22:46:04.998Z,14.95
2022-10-31T22:48:34.324Z,16.50
2022-10-31T22:51:08.496Z,16.87
2022-10-31T22:53:35.415Z,17.08
2022-10-31T22:56:02.449Z,16.40
2022-10-31T22:58:29.539Z,16.70
2022-10-31T23:00:56.493Z,17.08
2022-10-31T23:03:23.662Z,17.73
2022-10-31T23:05:57.272Z,16.83
2022-10-31T23:08:24.085Z,15.38
2022-10-31T23:10:51.052Z,15.03
2022-10-31T23:13:36.551Z,14.97
2022-10-31T23:16:12.818Z,16.40
2022-10-31T23:18:54.500Z,14.98
2022-10-31T23:21:43.959Z,16.05
2022-10-31T23:24:13.862Z,15.98
2022-10-31T23:26:59.236Z,14.20
2022-10-31T23:29:25.820Z,15.85
2022-10-31T23:31:54.593Z,17.27
2022-10-31T23:34:22.156Z,16.98
2022-10-31T23:36:49.158Z,17.23
2022-10-31T23:39:17.090Z,17.95
2022-10-31T23:41:44.481Z,17.30
2022-10-31T23:44:11.202Z,18.37
2022-10-31T23:46:37.792Z,18.50
2022-10-31T23:49:04.538Z,18.23
2022-10-31T23:51:31.358Z,16.08
2022-10-31T23:53:57.944Z,19.67
2022-10-31T23:56:24.511Z,17.45
2022-10-31T23:58:51.407Z,17.27
